Time,TemperatureF,DewpointF,PressureIn,WindDirection,WindDirectionDegrees,WindSpeedMPH,WindSpeedGustMPH,Humidity,HourlyPrecipIn,Conditions,Clouds,dailyrainin,SoftwareType,DateUTC
2013-07-21 00:02:00,61.9,55.2,29.39,SW,225,3.0,4.0,79,0.00,,,0.00,meteohub,2013-07-21 07:02:00,
2013-07-21 00:07:00,61.5,54.9,29.39,SW,225,3.0,4.0,79,0.00,,,0.00,meteohub,2013-07-21 07:07:00,
2013-07-21 00:12:00,61.5,54.3,29.39,SW,225,4.0,4.0,77,0.00,,,0.00,meteohub,2013-07-21 07:12:00,
2013-07-21 00:17:00,61.5,54.0,29.39,SW,225,2.0,4.0,76,0.00,,,0.00,meteohub,2013-07-21 07:17:00,
2013-07-21 00:22:00,61.5,53.2,29.39,SW,225,2.0,4.0,74,0.00,,,0.00,meteohub,2013-07-21 07:22:00,
2013-07-21 00:27:00,61.7,52.9,29.39,SW,225,2.0,4.0,73,0.00,,,0.00,meteohub,2013-07-21 07:27:00,
2013-07-21 00:32:00,61.7,52.2,29.39,SW,225,5.0,5.0,71,0.00,,,0.00,meteohub,2013-07-21 07:32:00,
2013-07-21 00:37:00,62.1,52.2,29.39,NW,315,2.0,5.0,70,0.00,,,0.00,meteohub,2013-07-21 07:37:00,
2013-07-21 00:42:00,62.1,51.8,29.40,SW,225,2.0,5.0,69,0.00,,,0.00,meteohub,2013-07-21 07:42:00,
2013-07-21 00:47:00,62.2,52.0,29.40,West,270,2.0,5.0,69,0.00,,,0.00,meteohub,2013-07-21 07:47:00,
2013-07-21 00:52:00,62.2,51.6,29.39,SW,225,4.0,4.0,68,0.00,,,0.00,meteohub,2013-07-21 07:52:00,
2013-07-21 00:57:00,62.4,50.9,29.39,South,180,2.0,4.0,66,0.00,,,0.00,meteohub,2013-07-21 07:57:00,
2013-07-21 01:02:00,62.6,51.1,29.39,South,180,1.0,4.0,66,0.00,,,0.00,meteohub,2013-07-21 08:02:00,
2013-07-21 01:07:00,62.8,50.9,29.39,SW,225,0.0,4.0,65,0.00,,,0.00,meteohub,2013-07-21 08:07:00,
2013-07-21 01:12:00,63.1,50.4,29.39,NNW,338,1.0,3.0,63,0.00,,,0.00,meteohub,2013-07-21 08:12:00,
2013-07-21 01:17:00,63.7,50.4,29.39,SE,135,1.0,4.0,62,0.00,,,0.00,meteohub,2013-07-21 08:17:00,
2013-07-21 01:22:00,64.0,49.8,29.39,SW,225,2.0,4.0,60,0.00,,,0.00,meteohub,2013-07-21 08:22:00,
2013-07-21 01:27:00,63.7,50.4,29.39,SW,225,2.0,4.0,62,0.00,,,0.00,meteohub,2013-07-21 08:27:00,
2013-07-21 01:32:00,62.8,50.9,29.39,SW,225,2.0,4.0,65,0.00,,,0.00,meteohub,2013-07-21 08:32:00,
2013-07-21 01:37:00,62.1,50.5,29.39,SW,225,1.0,4.0,66,0.00,,,0.00,meteohub,2013-07-21 08:37:00,
2013-07-21 01:42:00,61.5,50.5,29.39,SW,225,0.0,3.0,67,0.00,,,0.00,meteohub,2013-07-21 08:42:00,
2013-07-21 01:47:00,61.0,50.0,29.39,SW,225,1.0,2.0,67,0.00,,,0.00,meteohub,2013-07-21 08:47:00,
2013-07-21 01:52:00,60.6,50.0,29.39,NW,315,1.0,2.0,68,0.00,,,0.00,meteohub,2013-07-21 08:52:00,
2013-07-21 01:57:00,60.3,50.0,29.39,SW,225,2.0,2.0,69,0.00,,,0.00,meteohub,2013-07-21 08:57:00,
2013-07-21 02:02:00,59.9,49.6,29.39,SW,225,0.0,2.0,69,0.00,,,0.00,meteohub,2013-07-21 09:02:00,
2013-07-21 02:07:00,59.5,50.2,29.39,SW,225,2.0,2.0,71,0.00,,,0.00,meteohub,2013-07-21 09:07:00,
2013-07-21 02:12:00,59.5,49.8,29.39,NW,315,0.0,2.0,70,0.00,,,0.00,meteohub,2013-07-21 09:12:00,
2013-07-21 02:17:00,59.4,50.0,29.39,SW,225,0.0,2.0,71,0.00,,,0.00,meteohub,2013-07-21 09:17:00,
2013-07-21 02:22:00,59.2,49.8,29.39,SW,225,1.0,2.0,71,0.00,,,0.00,meteohub,2013-07-21 09:22:00,
2013-07-21 02:27:00,59.0,49.6,29.39,SW,225,0.0,2.0,71,0.00,,,0.00,meteohub,2013-07-21 09:27:00,
2013-07-21 02:32:00,58.8,49.5,29.39,SW,225,0.0,2.0,71,0.00,,,0.00,meteohub,2013-07-21 09:32:00,
2013-07-21 02:37:00,58.6,49.3,29.39,SW,225,0.0,2.0,71,0.00,,,0.00,meteohub,2013-07-21 09:37:00,
2013-07-21 02:42:00,59.2,49.8,29.39,NW,315,0.0,4.0,71,0.00,,,0.00,meteohub,2013-07-21 09:42:00,
2013-07-21 02:47:00,59.7,50.0,29.39,SW,225,1.0,4.0,70,0.00,,,0.00,meteohub,2013-07-21 09:47:00,
2013-07-21 02:52:00,60.3,49.6,29.39,SW,225,1.0,4.0,68,0.00,,,0.00,meteohub,2013-07-21 09:52:00,
2013-07-21 02:57:00,59.9,49.6,29.39,SW,225,0.0,2.0,69,0.00,,,0.00,meteohub,2013-07-21 09:57:00,
2013-07-21 03:02:00,59.0,49.3,29.39,SW,225,0.0,2.0,70,0.00,,,0.00,meteohub,2013-07-21 10:02:00,
2013-07-21 03:07:00,58.3,49.3,29.39,SE,135,0.0,2.0,72,0.00,,,0.00,meteohub,2013-07-21 10:07:00,
2013-07-21 03:12:00,57.7,48.7,29.39,SE,135,0.0,0.0,72,0.00,,,0.00,meteohub,2013-07-21 10:12:00,
2013-07-21 03:17:00,57.2,48.9,29.39,SE,135,0.0,0.0,74,0.00,,,0.00,meteohub,2013-07-21 10:17:00,
2013-07-21 03:22:00,56.8,48.9,29.38,SE,135,0.0,1.0,75,0.00,,,0.00,meteohub,2013-07-21 10:22:00,
2013-07-21 03:27:00,56.3,48.9,29.38,SE,135,0.0,1.0,76,0.00,,,0.00,meteohub,2013-07-21 10:27:00,
2013-07-21 03:32:00,55.9,48.9,29.38,SE,135,0.0,1.0,77,0.00,,,0.00,meteohub,2013-07-21 10:32:00,
2013-07-21 03:37:00,55.6,49.5,29.38,NE,45,2.0,0.0,80,0.00,,,0.00,meteohub,2013-07-21 10:37:00,
2013-07-21 03:42:00,55.8,50.0,29.38,North,0,0.0,2.0,81,0.00,,,0.00,meteohub,2013-07-21 10:42:00,
2013-07-21 03:47:00,55.6,49.8,29.38,North,0,0.0,2.0,81,0.00,,,0.00,meteohub,2013-07-21 10:47:00,
2013-07-21 03:52:00,55.2,49.8,29.38,South,180,0.0,2.0,82,0.00,,,0.00,meteohub,2013-07-21 10:52:00,
2013-07-21 03:57:00,54.7,49.3,29.38,South,180,1.0,1.0,82,0.00,,,0.00,meteohub,2013-07-21 10:57:00,
2013-07-21 04:02:00,54.0,48.9,29.38,SW,225,1.0,2.0,83,0.00,,,0.00,meteohub,2013-07-21 11:02:00,
2013-07-21 04:07:00,53.4,48.4,29.38,SW,225,0.0,2.0,83,0.00,,,0.00,meteohub,2013-07-21 11:07:00,
2013-07-21 04:12:00,53.1,48.7,29.39,SW,225,1.0,2.0,85,0.00,,,0.00,meteohub,2013-07-21 11:12:00,
2013-07-21 04:17:00,52.5,48.2,29.38,SE,135,1.0,1.0,85,0.00,,,0.00,meteohub,2013-07-21 11:17:00,
2013-07-21 04:22:00,52.3,48.9,29.38,SW,225,1.0,1.0,88,0.00,,,0.00,meteohub,2013-07-21 11:22:00,
2013-07-21 04:27:00,52.2,48.4,29.38,SW,225,0.0,2.0,87,0.00,,,0.00,meteohub,2013-07-21 11:27:00,
2013-07-21 04:33:00,52.2,48.7,29.38,SW,225,2.0,2.0,88,0.00,,,0.00,meteohub,2013-07-21 11:33:00,
2013-07-21 04:38:00,52.5,49.5,29.38,SW,225,4.0,4.0,89,0.00,,,0.00,meteohub,2013-07-21 11:38:00,
2013-07-21 04:43:00,53.1,49.6,29.38,SW,225,2.0,4.0,88,0.00,,,0.00,meteohub,2013-07-21 11:43:00,
2013-07-21 04:48:00,53.4,49.6,29.39,West,270,1.0,4.0,87,0.00,,,0.00,meteohub,2013-07-21 11:48:00,
2013-07-21 04:53:00,53.8,49.6,29.39,SW,225,1.0,4.0,86,0.00,,,0.00,meteohub,2013-07-21 11:53:00,
2013-07-21 04:58:00,54.0,49.8,29.39,SW,225,2.0,3.0,86,0.00,,,0.00,meteohub,2013-07-21 11:58:00,
2013-07-21 05:03:00,54.0,49.6,29.39,SW,225,0.0,2.0,85,0.00,,,0.00,meteohub,2013-07-21 12:03:00,
2013-07-21 05:08:00,53.6,49.3,29.39,SW,225,2.0,2.0,85,0.00,,,0.00,meteohub,2013-07-21 12:08:00,
2013-07-21 05:13:00,53.1,48.7,29.39,SW,225,0.0,2.0,85,0.00,,,0.00,meteohub,2013-07-21 12:13:00,
2013-07-21 05:18:00,52.7,48.6,29.39,SW,225,0.0,2.0,86,0.00,,,0.00,meteohub,2013-07-21 12:18:00,
2013-07-21 05:23:00,52.5,48.7,29.39,North,0,2.0,2.0,87,0.00,,,0.00,meteohub,2013-07-21 12:23:00,
2013-07-21 05:28:00,52.9,49.5,29.39,North,0,1.0,2.0,88,0.00,,,0.00,meteohub,2013-07-21 12:28:00,
2013-07-21 05:33:00,53.1,49.6,29.39,NE,45,0.0,2.0,88,0.00,,,0.00,meteohub,2013-07-21 12:33:00,
2013-07-21 05:38:00,53.1,49.3,29.40,NE,45,0.0,2.0,87,0.00,,,0.00,meteohub,2013-07-21 12:38:00,
2013-07-21 05:43:00,52.9,49.1,29.40,NE,45,0.0,2.0,87,0.00,,,0.00,meteohub,2013-07-21 12:43:00,
2013-07-21 05:48:00,52.7,49.3,29.40,NE,45,0.0,2.0,88,0.00,,,0.00,meteohub,2013-07-21 12:48:00,
2013-07-21 05:53:00,52.5,49.1,29.40,NE,45,0.0,0.0,88,0.00,,,0.00,meteohub,2013-07-21 12:53:00,
2013-07-21 05:58:00,52.3,48.9,29.40,NE,45,0.0,0.0,88,0.00,,,0.00,meteohub,2013-07-21 12:58:00,
2013-07-21 06:04:00,52.2,48.7,29.40,NE,45,0.0,0.0,88,0.00,,,0.00,meteohub,2013-07-21 13:04:00,
2013-07-21 06:09:00,52.3,49.3,29.41,NE,45,0.0,0.0,89,0.00,,,0.00,meteohub,2013-07-21 13:09:00,
2013-07-21 06:14:00,52.5,49.5,29.41,NE,45,0.0,0.0,89,0.00,,,0.00,meteohub,2013-07-21 13:14:00,
2013-07-21 06:19:00,52.7,49.5,29.40,NE,45,0.0,0.0,89,0.00,,,0.00,meteohub,2013-07-21 13:19:00,
2013-07-21 06:24:00,54.0,51.1,29.40,NE,45,2.0,0.0,90,0.00,,,0.00,meteohub,2013-07-21 13:24:00,
2013-07-21 06:29:00,55.4,52.0,29.40,NE,45,1.0,2.0,88,0.00,,,0.00,meteohub,2013-07-21 13:29:00,
2013-07-21 06:34:00,55.8,51.3,29.40,NE,45,0.0,2.0,85,0.00,,,0.00,meteohub,2013-07-21 13:34:00,
2013-07-21 06:39:00,55.6,50.9,29.40,NE,45,0.0,2.0,84,0.00,,,0.00,meteohub,2013-07-21 13:39:00,
2013-07-21 06:44:00,55.2,50.5,29.41,NE,45,0.0,2.0,84,0.00,,,0.00,meteohub,2013-07-21 13:44:00,
2013-07-21 06:49:00,55.4,50.9,29.40,NE,45,2.0,2.0,85,0.00,,,0.00,meteohub,2013-07-21 13:49:00,
2013-07-21 06:54:00,55.8,51.3,29.40,NE,45,0.0,2.0,85,0.00,,,0.00,meteohub,2013-07-21 13:54:00,
2013-07-21 06:59:00,55.9,51.3,29.40,SW,225,1.0,2.0,84,0.00,,,0.00,meteohub,2013-07-21 13:59:00,
2013-07-21 07:04:00,55.6,50.9,29.40,SW,225,2.0,2.0,84,0.00,,,0.00,meteohub,2013-07-21 14:04:00,
2013-07-21 07:09:00,55.0,50.9,29.40,SW,225,2.0,2.0,86,0.00,,,0.00,meteohub,2013-07-21 14:09:00,
2013-07-21 07:14:00,55.0,51.3,29.40,SW,225,1.0,2.0,87,0.00,,,0.00,meteohub,2013-07-21 14:14:00,
2013-07-21 07:19:00,55.4,51.6,29.39,SW,225,2.0,2.0,87,0.00,,,0.00,meteohub,2013-07-21 14:19:00,
2013-07-21 07:24:00,55.8,51.6,29.40,SW,225,2.0,2.0,86,0.00,,,0.00,meteohub,2013-07-21 14:24:00,
2013-07-21 07:29:00,56.1,52.0,29.40,SW,225,0.0,2.0,86,0.00,,,0.00,meteohub,2013-07-21 14:29:00,
2013-07-21 07:34:00,56.3,52.2,29.40,SW,225,0.0,2.0,86,0.00,,,0.00,meteohub,2013-07-21 14:34:00,
2013-07-21 07:39:00,56.7,52.5,29.40,SW,225,2.0,2.0,86,0.00,,,0.00,meteohub,2013-07-21 14:39:00,
2013-07-21 07:45:00,57.2,52.7,29.39,SW,225,2.0,2.0,85,0.00,,,0.00,meteohub,2013-07-21 14:45:00,
2013-07-21 07:50:00,57.9,53.4,29.40,SW,225,2.0,3.0,85,0.00,,,0.00,meteohub,2013-07-21 14:50:00,
2013-07-21 07:55:00,60.4,55.2,29.39,SW,225,2.0,3.0,83,0.00,,,0.00,meteohub,2013-07-21 14:55:00,
2013-07-21 08:00:00,63.5,56.8,29.40,SW,225,2.0,3.0,79,0.00,,,0.00,meteohub,2013-07-21 15:00:00,
2013-07-21 08:05:00,65.5,57.0,29.40,SE,135,1.0,2.0,74,0.00,,,0.00,meteohub,2013-07-21 15:05:00,
2013-07-21 08:10:00,68.0,57.9,29.40,East,90,2.0,2.0,70,0.00,,,0.00,meteohub,2013-07-21 15:10:00,
2013-07-21 08:15:00,68.5,56.7,29.40,South,180,1.0,3.0,66,0.00,,,0.00,meteohub,2013-07-21 15:15:00,
2013-07-21 08:20:00,69.8,57.9,29.40,NW,315,2.0,3.0,66,0.00,,,0.00,meteohub,2013-07-21 15:20:00,
2013-07-21 08:25:00,70.9,59.0,29.40,North,0,1.0,2.0,66,0.00,,,0.00,meteohub,2013-07-21 15:25:00,
2013-07-21 08:30:00,71.4,56.8,29.40,SE,135,4.0,4.0,60,0.00,,,0.00,meteohub,2013-07-21 15:30:00,
2013-07-21 08:35:00,71.8,56.1,29.40,North,0,2.0,4.0,58,0.00,,,0.00,meteohub,2013-07-21 15:35:00,
2013-07-21 08:40:00,72.1,57.6,29.41,South,180,3.0,4.0,60,0.00,,,0.00,meteohub,2013-07-21 15:40:00,
2013-07-21 08:45:00,70.3,57.2,29.40,West,270,2.0,4.0,63,0.00,,,0.00,meteohub,2013-07-21 15:45:00,
2013-07-21 08:50:00,71.2,57.9,29.41,West,270,2.0,4.0,63,0.00,,,0.00,meteohub,2013-07-21 15:50:00,
2013-07-21 08:55:00,72.7,58.8,29.40,South,180,0.0,4.0,62,0.00,,,0.00,meteohub,2013-07-21 15:55:00,
2013-07-21 09:00:00,72.1,55.0,29.41,NE,45,5.0,6.0,55,0.00,,,0.00,meteohub,2013-07-21 16:00:00,
2013-07-21 09:05:00,71.6,55.6,29.41,NW,315,3.0,6.0,57,0.00,,,0.00,meteohub,2013-07-21 16:05:00,
2013-07-21 09:10:00,71.8,55.2,29.40,East,90,4.0,6.0,56,0.00,,,0.00,meteohub,2013-07-21 16:10:00,
2013-07-21 09:15:00,71.6,57.0,29.40,SE,135,0.0,6.0,60,0.00,,,0.00,meteohub,2013-07-21 16:15:00,
2013-07-21 09:20:00,72.7,55.6,29.40,North,0,3.0,4.0,55,0.00,,,0.00,meteohub,2013-07-21 16:20:00,
2013-07-21 09:25:00,74.5,58.8,29.40,South,180,0.0,4.0,58,0.00,,,0.00,meteohub,2013-07-21 16:25:00,
2013-07-21 09:30:00,75.2,56.3,29.40,NE,45,2.0,4.0,52,0.00,,,0.00,meteohub,2013-07-21 16:30:00,
2013-07-21 09:36:00,76.1,57.7,29.40,South,180,2.0,4.0,53,0.00,,,0.00,meteohub,2013-07-21 16:36:00,
2013-07-21 09:41:00,75.0,56.1,29.40,NE,45,3.0,6.0,52,0.00,,,0.00,meteohub,2013-07-21 16:41:00,
2013-07-21 09:46:00,74.3,56.1,29.40,NE,45,2.0,6.0,53,0.00,,,0.00,meteohub,2013-07-21 16:46:00,
2013-07-21 09:51:00,75.4,56.5,29.40,NE,45,2.0,6.0,52,0.00,,,0.00,meteohub,2013-07-21 16:51:00,
2013-07-21 09:56:00,75.7,56.8,29.40,North,0,2.0,5.0,52,0.00,,,0.00,meteohub,2013-07-21 16:56:00,
2013-07-21 10:01:00,75.4,57.6,29.40,North,0,1.0,4.0,54,0.00,,,0.00,meteohub,2013-07-21 17:01:00,
2013-07-21 10:06:00,76.3,56.8,29.39,North,0,4.0,4.0,51,0.00,,,0.00,meteohub,2013-07-21 17:06:00,
2013-07-21 10:11:00,76.3,57.4,29.40,SW,225,2.0,4.0,52,0.00,,,0.00,meteohub,2013-07-21 17:11:00,
2013-07-21 10:16:00,76.8,57.9,29.40,North,0,2.0,4.0,52,0.00,,,0.00,meteohub,2013-07-21 17:16:00,
2013-07-21 10:21:00,75.9,55.4,29.39,North,0,5.0,7.0,49,0.00,,,0.00,meteohub,2013-07-21 17:21:00,
2013-07-21 10:26:00,76.1,57.7,29.39,North,0,2.0,7.0,53,0.00,,,0.00,meteohub,2013-07-21 17:26:00,
2013-07-21 10:31:00,76.8,57.4,29.39,North,0,3.0,7.0,51,0.00,,,0.00,meteohub,2013-07-21 17:31:00,
2013-07-21 10:36:00,76.1,56.1,29.39,NE,45,4.0,6.0,50,0.00,,,0.00,meteohub,2013-07-21 17:36:00,
2013-07-21 10:41:00,75.4,56.5,29.39,East,90,4.0,6.0,52,0.00,,,0.00,meteohub,2013-07-21 17:41:00,
2013-07-21 10:46:00,74.8,56.1,29.39,East,90,7.0,7.0,52,0.00,,,0.00,meteohub,2013-07-21 17:46:00,
2013-07-21 10:51:00,74.5,56.3,29.39,North,0,6.0,8.0,53,0.00,,,0.00,meteohub,2013-07-21 17:51:00,
2013-07-21 10:56:00,74.8,57.0,29.39,NE,45,4.0,8.0,54,0.00,,,0.00,meteohub,2013-07-21 17:56:00,
2013-07-21 11:01:00,75.0,56.1,29.39,NE,45,8.0,8.0,52,0.00,,,0.00,meteohub,2013-07-21 18:01:00,
2013-07-21 11:06:00,75.2,56.8,29.39,North,0,4.0,8.0,53,0.00,,,0.00,meteohub,2013-07-21 18:06:00,
2013-07-21 11:11:00,75.9,55.9,29.39,NE,45,8.0,8.0,50,0.00,,,0.00,meteohub,2013-07-21 18:11:00,
2013-07-21 11:16:00,75.7,56.8,29.39,NE,45,4.0,8.0,52,0.00,,,0.00,meteohub,2013-07-21 18:16:00,
2013-07-21 11:22:00,76.5,57.0,29.39,NE,45,5.0,8.0,51,0.00,,,0.00,meteohub,2013-07-21 18:22:00,
2013-07-21 11:27:00,76.8,56.8,29.39,NE,45,4.0,8.0,50,0.00,,,0.00,meteohub,2013-07-21 18:27:00,
2013-07-21 11:32:00,77.0,57.6,29.39,NW,315,2.0,7.0,51,0.00,,,0.00,meteohub,2013-07-21 18:32:00,
2013-07-21 11:37:00,77.4,56.1,29.39,NE,45,2.0,7.0,48,0.00,,,0.00,meteohub,2013-07-21 18:37:00,
2013-07-21 11:42:00,78.4,57.2,29.39,NE,45,4.0,7.0,48,0.00,,,0.00,meteohub,2013-07-21 18:42:00,
2013-07-21 11:47:00,78.6,56.7,29.39,NE,45,4.0,5.0,47,0.00,,,0.00,meteohub,2013-07-21 18:47:00,
2013-07-21 11:52:00,78.1,56.3,29.38,North,0,5.0,5.0,47,0.00,,,0.00,meteohub,2013-07-21 18:52:00,
2013-07-21 11:57:00,78.6,56.7,29.38,NE,45,4.0,8.0,47,0.00,,,0.00,meteohub,2013-07-21 18:57:00,
2013-07-21 12:02:00,78.6,56.7,29.39,NW,315,2.0,8.0,47,0.00,,,0.00,meteohub,2013-07-21 19:02:00,
2013-07-21 12:07:00,79.7,56.5,29.38,NE,45,4.0,8.0,45,0.00,,,0.00,meteohub,2013-07-21 19:07:00,
2013-07-21 12:12:00,80.2,56.3,29.38,East,90,5.0,6.0,44,0.00,,,0.00,meteohub,2013-07-21 19:12:00,
2013-07-21 12:17:00,81.5,59.4,29.38,South,180,2.0,5.0,47,0.00,,,0.00,meteohub,2013-07-21 19:17:00,
2013-07-21 12:22:00,82.2,57.6,29.37,East,90,4.0,5.0,43,0.00,,,0.00,meteohub,2013-07-21 19:22:00,
2013-07-21 12:27:00,81.3,56.7,29.37,North,0,3.0,6.0,43,0.00,,,0.00,meteohub,2013-07-21 19:27:00,
2013-07-21 12:32:00,81.7,57.0,29.37,East,90,4.0,6.0,43,0.00,,,0.00,meteohub,2013-07-21 19:32:00,
2013-07-21 12:37:00,81.7,57.0,29.37,NE,45,4.0,6.0,43,0.00,,,0.00,meteohub,2013-07-21 19:37:00,
2013-07-21 12:42:00,82.4,57.0,29.37,East,90,4.0,6.0,42,0.00,,,0.00,meteohub,2013-07-21 19:42:00,
2013-07-21 12:47:00,82.4,57.0,29.37,NE,45,3.0,6.0,42,0.00,,,0.00,meteohub,2013-07-21 19:47:00,
2013-07-21 12:52:00,83.3,56.5,29.36,NW,315,3.0,5.0,40,0.00,,,0.00,meteohub,2013-07-21 19:52:00,
2013-07-21 12:57:00,83.7,56.1,29.36,NE,45,2.0,6.0,39,0.00,,,0.00,meteohub,2013-07-21 19:57:00,
2013-07-21 13:02:00,84.7,55.6,29.36,East,90,4.0,6.0,37,0.00,,,0.00,meteohub,2013-07-21 20:02:00,
2013-07-21 13:07:00,85.8,57.9,29.36,West,270,2.0,5.0,39,0.00,,,0.00,meteohub,2013-07-21 20:07:00,
2013-07-21 13:12:00,87.1,58.5,29.36,NW,315,2.0,5.0,38,0.00,,,0.00,meteohub,2013-07-21 20:12:00,
2013-07-21 13:17:00,87.3,55.4,29.36,North,0,4.0,5.0,34,0.00,,,0.00,meteohub,2013-07-21 20:17:00,
2013-07-21 13:22:00,86.7,55.0,29.36,East,90,4.0,7.0,34,0.00,,,0.00,meteohub,2013-07-21 20:22:00,
2013-07-21 13:27:00,86.7,55.8,29.36,NW,315,3.0,7.0,35,0.00,,,0.00,meteohub,2013-07-21 20:27:00,
2013-07-21 13:32:00,86.5,55.6,29.36,NE,45,4.0,7.0,35,0.00,,,0.00,meteohub,2013-07-21 20:32:00,
2013-07-21 13:37:00,86.2,56.1,29.36,East,90,8.0,8.0,36,0.00,,,0.00,meteohub,2013-07-21 20:37:00,
2013-07-21 13:42:00,86.5,55.6,29.36,North,0,5.0,8.0,35,0.00,,,0.00,meteohub,2013-07-21 20:42:00,
2013-07-21 13:47:00,86.0,55.2,29.36,NE,45,8.0,8.0,35,0.00,,,0.00,meteohub,2013-07-21 20:47:00,
2013-07-21 13:52:00,85.8,55.0,29.35,North,0,5.0,8.0,35,0.00,,,0.00,meteohub,2013-07-21 20:52:00,
2013-07-21 13:57:00,85.8,54.1,29.35,NE,45,8.0,10.0,34,0.00,,,0.00,meteohub,2013-07-21 20:57:00,
2013-07-21 14:02:00,86.2,56.8,29.35,NW,315,2.0,10.0,37,0.00,,,0.00,meteohub,2013-07-21 21:02:00,
2013-07-21 14:07:00,87.1,53.6,29.35,NE,45,7.0,10.0,32,0.00,,,0.00,meteohub,2013-07-21 21:07:00,
2013-07-21 14:12:00,87.8,53.4,29.35,NE,45,6.0,8.0,31,0.00,,,0.00,meteohub,2013-07-21 21:12:00,
2013-07-21 14:17:00,88.0,53.6,29.35,NE,45,4.0,9.0,31,0.00,,,0.00,meteohub,2013-07-21 21:17:00,
2013-07-21 14:22:00,88.2,55.4,29.35,NE,45,4.0,9.0,33,0.00,,,0.00,meteohub,2013-07-21 21:22:00,
2013-07-21 14:27:00,88.7,54.1,29.35,NE,45,5.0,9.0,31,0.00,,,0.00,meteohub,2013-07-21 21:27:00,
2013-07-21 14:32:00,89.2,55.6,29.35,South,180,3.0,7.0,32,0.00,,,0.00,meteohub,2013-07-21 21:32:00,
2013-07-21 14:37:00,89.8,55.9,29.35,WNW,293,2.0,7.0,32,0.00,,,0.00,meteohub,2013-07-21 21:37:00,
2013-07-21 14:42:00,89.8,55.9,29.35,East,90,2.0,7.0,32,0.00,,,0.00,meteohub,2013-07-21 21:42:00,
2013-07-21 14:47:00,90.1,55.4,29.35,NE,45,4.0,7.0,31,0.00,,,0.00,meteohub,2013-07-21 21:47:00,
2013-07-21 14:52:00,90.3,55.6,29.35,SW,225,2.0,7.0,31,0.00,,,0.00,meteohub,2013-07-21 21:52:00,
2013-07-21 14:57:00,91.2,53.6,29.34,East,90,4.0,5.0,28,0.00,,,0.00,meteohub,2013-07-21 21:57:00,
2013-07-21 15:00:00,90.7,53.1,29.34,East,90,5.0,6.0,28,0.00,,,0.00,meteohub,2013-07-21 22:00:00,
2013-07-21 15:05:00,90.9,54.1,29.34,NW,315,2.0,6.0,29,0.00,,,0.00,meteohub,2013-07-21 22:05:00,
2013-07-21 15:10:00,90.1,53.6,29.34,NE,45,7.0,8.0,29,0.00,,,0.00,meteohub,2013-07-21 22:10:00,
2013-07-21 15:15:00,90.9,54.1,29.34,SW,225,5.0,8.0,29,0.00,,,0.00,meteohub,2013-07-21 22:15:00,
2013-07-21 15:21:00,91.4,53.8,29.34,East,90,4.0,8.0,28,0.00,,,0.00,meteohub,2013-07-21 22:21:00,
2013-07-21 15:26:00,91.9,53.2,29.34,SW,225,4.0,7.0,27,0.00,,,0.00,meteohub,2013-07-21 22:26:00,
2013-07-21 15:31:00,91.9,53.2,29.34,NE,45,3.0,6.0,27,0.00,,,0.00,meteohub,2013-07-21 22:31:00,
2013-07-21 15:36:00,93.0,54.1,29.34,NW,315,2.0,5.0,27,0.00,,,0.00,meteohub,2013-07-21 22:36:00,
2013-07-21 15:41:00,93.4,52.3,29.34,North,0,4.0,8.0,25,0.00,,,0.00,meteohub,2013-07-21 22:41:00,
2013-07-21 15:46:00,93.0,52.0,29.34,North,0,4.0,8.0,25,0.00,,,0.00,meteohub,2013-07-21 22:46:00,
2013-07-21 15:51:00,93.9,53.8,29.34,NE,45,3.0,8.0,26,0.00,,,0.00,meteohub,2013-07-21 22:51:00,
2013-07-21 15:56:00,94.8,53.6,29.34,North,0,6.0,8.0,25,0.00,,,0.00,meteohub,2013-07-21 22:56:00,
2013-07-21 16:01:00,93.9,53.8,29.33,East,90,2.0,7.0,26,0.00,,,0.00,meteohub,2013-07-21 23:01:00,
2013-07-21 16:06:00,93.4,52.3,29.33,NE,45,4.0,8.0,25,0.00,,,0.00,meteohub,2013-07-21 23:06:00,
2013-07-21 16:11:00,93.2,52.2,29.33,NE,45,5.0,8.0,25,0.00,,,0.00,meteohub,2013-07-21 23:11:00,
2013-07-21 16:16:00,94.3,54.1,29.33,North,0,3.0,8.0,26,0.00,,,0.00,meteohub,2013-07-21 23:16:00,
2013-07-21 16:21:00,94.8,53.6,29.33,NW,315,2.0,6.0,25,0.00,,,0.00,meteohub,2013-07-21 23:21:00,
2013-07-21 16:26:00,94.8,51.3,29.33,NE,45,5.0,6.0,23,0.00,,,0.00,meteohub,2013-07-21 23:26:00,
2013-07-21 16:31:00,93.6,51.3,29.33,North,0,4.0,8.0,24,0.00,,,0.00,meteohub,2013-07-21 23:31:00,
2013-07-21 16:36:00,94.1,51.8,29.33,NE,45,4.0,8.0,24,0.00,,,0.00,meteohub,2013-07-21 23:36:00,
2013-07-21 16:41:00,94.5,53.2,29.32,North,0,3.0,8.0,25,0.00,,,0.00,meteohub,2013-07-21 23:41:00,
2013-07-21 16:46:00,94.6,53.4,29.32,NE,45,4.0,7.0,25,0.00,,,0.00,meteohub,2013-07-21 23:46:00,
2013-07-21 16:51:00,94.5,53.2,29.32,NE,45,5.0,7.0,25,0.00,,,0.00,meteohub,2013-07-21 23:51:00,
2013-07-21 16:56:00,95.2,52.7,29.32,East,90,4.0,7.0,24,0.00,,,0.00,meteohub,2013-07-21 23:56:00,
2013-07-21 17:02:00,95.4,51.6,29.32,East,90,4.0,6.0,23,0.00,,,0.00,meteohub,2013-07-22 00:02:00,
2013-07-21 17:07:00,95.0,53.6,29.31,NE,45,2.0,7.0,25,0.00,,,0.00,meteohub,2013-07-22 00:07:00,
2013-07-21 17:12:00,95.2,52.7,29.32,North,0,5.0,7.0,24,0.00,,,0.00,meteohub,2013-07-22 00:12:00,
2013-07-21 17:17:00,95.4,55.0,29.31,NE,45,3.0,7.0,26,0.00,,,0.00,meteohub,2013-07-22 00:17:00,
2013-07-21 17:22:00,94.6,56.5,29.32,NW,315,4.0,6.0,28,0.00,,,0.00,meteohub,2013-07-22 00:22:00,
2013-07-21 17:27:00,95.2,62.4,29.32,South,180,2.0,6.0,34,0.00,,,0.00,meteohub,2013-07-22 00:27:00,
2013-07-21 17:32:00,93.6,61.7,29.31,SW,225,3.0,6.0,35,0.00,,,0.00,meteohub,2013-07-22 00:32:00,
2013-07-21 17:37:00,93.7,61.9,29.31,South,180,7.0,7.0,35,0.00,,,0.00,meteohub,2013-07-22 00:37:00,
2013-07-21 17:42:00,93.4,61.7,29.31,South,180,5.0,7.0,35,0.00,,,0.00,meteohub,2013-07-22 00:42:00,
2013-07-21 17:47:00,92.3,61.5,29.31,West,270,4.0,7.0,36,0.00,,,0.00,meteohub,2013-07-22 00:47:00,
2013-07-21 17:52:00,92.1,62.1,29.31,SW,225,7.0,7.0,37,0.00,,,0.00,meteohub,2013-07-22 00:52:00,
2013-07-21 17:57:00,91.9,61.2,29.31,SW,225,7.0,7.0,36,0.00,,,0.00,meteohub,2013-07-22 00:57:00,
2013-07-21 18:02:00,90.9,61.7,29.31,South,180,8.0,8.0,38,0.00,,,0.00,meteohub,2013-07-22 01:02:00,
2013-07-21 18:07:00,89.6,62.1,29.30,South,180,4.0,8.0,40,0.00,,,0.00,meteohub,2013-07-22 01:07:00,
2013-07-21 18:12:00,89.6,61.3,29.31,SW,225,8.0,12.0,39,0.00,,,0.00,meteohub,2013-07-22 01:12:00,
2013-07-21 18:17:00,89.4,61.2,29.31,SW,225,5.0,12.0,39,0.00,,,0.00,meteohub,2013-07-22 01:17:00,
2013-07-21 18:22:00,88.5,62.4,29.31,SW,225,6.0,11.0,42,0.00,,,0.00,meteohub,2013-07-22 01:22:00,
2013-07-21 18:27:00,88.7,61.3,29.31,South,180,7.0,11.0,40,0.00,,,0.00,meteohub,2013-07-22 01:27:00,
2013-07-21 18:32:00,88.2,61.5,29.31,South,180,12.0,12.0,41,0.00,,,0.00,meteohub,2013-07-22 01:32:00,
2013-07-21 18:37:00,86.9,61.7,29.31,South,180,3.0,14.0,43,0.00,,,0.00,meteohub,2013-07-22 01:37:00,
2013-07-21 18:42:00,86.5,61.3,29.30,SE,135,8.0,14.0,43,0.00,,,0.00,meteohub,2013-07-22 01:42:00,
2013-07-21 18:47:00,86.0,61.5,29.31,South,180,8.0,14.0,44,0.00,,,0.00,meteohub,2013-07-22 01:47:00,
2013-07-21 18:52:00,86.0,61.0,29.31,South,180,7.0,11.0,43,0.00,,,0.00,meteohub,2013-07-22 01:52:00,
2013-07-21 18:57:00,85.6,61.2,29.31,South,180,8.0,11.0,44,0.00,,,0.00,meteohub,2013-07-22 01:57:00,
2013-07-21 19:02:00,83.8,61.5,29.31,South,180,3.0,8.0,47,0.00,,,0.00,meteohub,2013-07-22 02:02:00,
2013-07-21 19:07:00,82.2,60.6,29.31,SW,225,3.0,8.0,48,0.00,,,0.00,meteohub,2013-07-22 02:07:00,
2013-07-21 19:12:00,80.8,61.0,29.31,South,180,4.0,8.0,51,0.00,,,0.00,meteohub,2013-07-22 02:12:00,
2013-07-21 19:17:00,80.1,60.8,29.31,South,180,4.0,7.0,52,0.00,,,0.00,meteohub,2013-07-22 02:17:00,
2013-07-21 19:22:00,79.5,60.4,29.31,South,180,5.0,7.0,52,0.00,,,0.00,meteohub,2013-07-22 02:22:00,
2013-07-21 19:27:00,79.5,60.4,29.31,South,180,4.0,6.0,52,0.00,,,0.00,meteohub,2013-07-22 02:27:00,
2013-07-21 19:32:00,79.7,59.9,29.31,South,180,2.0,6.0,51,0.00,,,0.00,meteohub,2013-07-22 02:32:00,
2013-07-21 19:37:00,81.1,59.5,29.31,South,180,4.0,6.0,48,0.00,,,0.00,meteohub,2013-07-22 02:37:00,
2013-07-21 19:42:00,81.0,60.1,29.31,South,180,4.0,6.0,49,0.00,,,0.00,meteohub,2013-07-22 02:42:00,
2013-07-21 19:47:00,79.3,59.7,29.31,SW,225,4.0,6.0,51,0.00,,,0.00,meteohub,2013-07-22 02:47:00,
2013-07-21 19:52:00,77.9,59.4,29.31,SW,225,5.0,5.0,53,0.00,,,0.00,meteohub,2013-07-22 02:52:00,
2013-07-21 19:57:00,76.8,59.4,29.32,South,180,4.0,5.0,55,0.00,,,0.00,meteohub,2013-07-22 02:57:00,
2013-07-21 20:02:00,76.1,59.2,29.32,South,180,3.0,5.0,56,0.00,,,0.00,meteohub,2013-07-22 03:02:00,
2013-07-21 20:07:00,75.4,59.0,29.32,SW,225,3.0,5.0,57,0.00,,,0.00,meteohub,2013-07-22 03:07:00,
2013-07-21 20:12:00,74.8,59.0,29.32,South,180,4.0,4.0,58,0.00,,,0.00,meteohub,2013-07-22 03:12:00,
2013-07-21 20:17:00,74.3,59.0,29.32,South,180,4.0,6.0,59,0.00,,,0.00,meteohub,2013-07-22 03:17:00,
2013-07-21 20:22:00,73.9,59.2,29.32,SW,225,4.0,6.0,60,0.00,,,0.00,meteohub,2013-07-22 03:22:00,
2013-07-21 20:27:00,73.4,58.6,29.32,South,180,4.0,6.0,60,0.00,,,0.00,meteohub,2013-07-22 03:27:00,
2013-07-21 20:32:00,72.9,59.0,29.32,SW,225,4.0,5.0,62,0.00,,,0.00,meteohub,2013-07-22 03:32:00,
2013-07-21 20:37:00,72.3,59.0,29.32,SW,225,4.0,5.0,63,0.00,,,0.00,meteohub,2013-07-22 03:37:00,
2013-07-21 20:42:00,72.1,58.8,29.33,West,270,3.0,5.0,63,0.00,,,0.00,meteohub,2013-07-22 03:42:00,
2013-07-21 20:47:00,71.6,58.8,29.32,SW,225,4.0,5.0,64,0.00,,,0.00,meteohub,2013-07-22 03:47:00,
2013-07-21 20:52:00,71.2,58.8,29.33,SW,225,3.0,4.0,65,0.00,,,0.00,meteohub,2013-07-22 03:52:00,
2013-07-21 20:57:00,71.1,59.2,29.33,SW,225,2.0,4.0,66,0.00,,,0.00,meteohub,2013-07-22 03:57:00,
2013-07-21 21:01:00,70.7,58.8,29.32,SW,225,4.0,4.0,66,0.00,,,0.00,meteohub,2013-07-22 04:01:00,
2013-07-21 21:02:00,70.7,58.8,29.33,South,180,2.0,4.0,66,0.00,,,0.00,meteohub,2013-07-22 04:02:00,
2013-07-21 21:03:00,70.5,58.6,29.33,SW,225,3.0,4.0,66,0.00,,,0.00,meteohub,2013-07-22 04:03:00,
2013-07-21 21:07:00,70.3,58.8,29.33,SW,225,3.0,4.0,67,0.00,,,0.00,meteohub,2013-07-22 04:07:00,
2013-07-21 21:12:00,70.2,58.6,29.33,West,270,2.0,4.0,67,0.00,,,0.00,meteohub,2013-07-22 04:12:00,
2013-07-21 21:17:00,70.0,58.5,29.33,South,180,2.0,4.0,67,0.00,,,0.00,meteohub,2013-07-22 04:17:00,
2013-07-21 21:22:00,69.6,58.6,29.33,SW,225,2.0,5.0,68,0.00,,,0.00,meteohub,2013-07-22 04:22:00,
2013-07-21 21:27:00,69.3,58.6,29.33,South,180,3.0,5.0,69,0.00,,,0.00,meteohub,2013-07-22 04:27:00,
2013-07-21 21:32:00,69.1,58.5,29.34,SW,225,2.0,3.0,69,0.00,,,0.00,meteohub,2013-07-22 04:32:00,
2013-07-21 21:37:00,68.9,58.6,29.34,SW,225,3.0,5.0,70,0.00,,,0.00,meteohub,2013-07-22 04:37:00,
2013-07-21 21:42:00,68.5,58.3,29.34,SW,225,2.0,5.0,70,0.00,,,0.00,meteohub,2013-07-22 04:42:00,
2013-07-21 21:47:00,68.4,58.6,29.34,SW,225,4.0,5.0,71,0.00,,,0.00,meteohub,2013-07-22 04:47:00,
2013-07-21 21:52:00,68.2,58.5,29.34,SW,225,2.0,6.0,71,0.00,,,0.00,meteohub,2013-07-22 04:52:00,
2013-07-21 21:57:00,68.2,58.5,29.34,SW,225,2.0,6.0,71,0.00,,,0.00,meteohub,2013-07-22 04:57:00,
2013-07-21 22:02:00,67.8,58.5,29.34,SW,225,3.0,6.0,72,0.00,,,0.00,meteohub,2013-07-22 05:02:00,
2013-07-21 22:07:00,67.5,58.5,29.34,SW,225,4.0,4.0,73,0.00,,,0.00,meteohub,2013-07-22 05:07:00,
2013-07-21 22:12:00,67.3,58.3,29.34,SW,225,2.0,4.0,73,0.00,,,0.00,meteohub,2013-07-22 05:12:00,
2013-07-21 22:17:00,67.1,58.1,29.34,SW,225,2.0,4.0,73,0.00,,,0.00,meteohub,2013-07-22 05:17:00,
2013-07-21 22:23:00,66.9,58.3,29.34,SW,225,3.0,4.0,74,0.00,,,0.00,meteohub,2013-07-22 05:23:00,
2013-07-21 22:28:00,66.9,58.3,29.35,SW,225,3.0,4.0,74,0.00,,,0.00,meteohub,2013-07-22 05:28:00,
2013-07-21 22:33:00,66.9,58.3,29.34,SW,225,2.0,4.0,74,0.00,,,0.00,meteohub,2013-07-22 05:33:00,
2013-07-21 22:38:00,66.9,58.3,29.35,SW,225,3.0,4.0,74,0.00,,,0.00,meteohub,2013-07-22 05:38:00,
2013-07-21 22:43:00,66.7,58.1,29.35,SW,225,3.0,4.0,74,0.00,,,0.00,meteohub,2013-07-22 05:43:00,
2013-07-21 22:48:00,66.7,58.1,29.35,SW,225,3.0,4.0,74,0.00,,,0.00,meteohub,2013-07-22 05:48:00,
2013-07-21 22:53:00,66.9,57.9,29.35,South,180,2.0,4.0,73,0.00,,,0.00,meteohub,2013-07-22 05:53:00,
2013-07-21 22:58:00,66.9,57.9,29.35,SW,225,3.0,4.0,73,0.00,,,0.00,meteohub,2013-07-22 05:58:00,
2013-07-21 23:03:00,66.9,57.9,29.35,South,180,3.0,4.0,73,0.00,,,0.00,meteohub,2013-07-22 06:03:00,
2013-07-21 23:08:00,66.6,58.1,29.35,NE,45,2.0,4.0,74,0.00,,,0.00,meteohub,2013-07-22 06:08:00,
2013-07-21 23:13:00,66.7,57.7,29.35,SW,225,5.0,5.0,73,0.00,,,0.00,meteohub,2013-07-22 06:13:00,
2013-07-21 23:18:00,66.9,57.9,29.35,South,180,3.0,5.0,73,0.00,,,0.00,meteohub,2013-07-22 06:18:00,
2013-07-21 23:23:00,66.9,57.6,29.36,SW,225,3.0,5.0,72,0.00,,,0.00,meteohub,2013-07-22 06:23:00,
2013-07-21 23:28:00,67.1,57.7,29.36,SW,225,4.0,5.0,72,0.00,,,0.00,meteohub,2013-07-22 06:28:00,
2013-07-21 23:33:00,66.9,57.6,29.36,SW,225,2.0,4.0,72,0.00,,,0.00,meteohub,2013-07-22 06:33:00,
2013-07-21 23:38:00,66.7,57.4,29.35,SW,225,1.0,4.0,72,0.00,,,0.00,meteohub,2013-07-22 06:38:00,
2013-07-21 23:43:00,66.9,57.6,29.35,SSW,203,4.0,4.0,72,0.00,,,0.00,meteohub,2013-07-22 06:43:00,
2013-07-21 23:48:00,66.9,57.6,29.35,SW,225,5.0,5.0,72,0.00,,,0.00,meteohub,2013-07-22 06:48:00,
2013-07-21 23:53:00,67.1,57.4,29.35,SW,225,4.0,4.0,71,0.00,,,0.00,meteohub,2013-07-22 06:53:00,
2013-07-21 23:58:00,66.7,57.4,29.35,SW,225,1.0,5.0,72,0.00,,,0.00,meteohub,2013-07-22 06:58:00,